Terminal Aerodrome Forecast
Issued by NWS Blacksburg, VA

Current Version | Previous Version | Graphics & Text | Print | Product List | Glossary On
Versions: 1 2 3 4 5 6 7 8 9 10 11 12 13 14 15 16 17 18 19 20 21 22 23 24 25 26 27 28 29 30 31 32 33 34 35 36 37 38 39
717
FTUS41 KRNK 051200 RRA
TAFBLF
TAF
KBLF 051200Z 0512/0612 28008KT P6SM OVC008
     FM051300 31009G17KT P6SM OVC015
     FM051700 32007KT P6SM SCT020 BKN250
     FM060000 VRB04KT P6SM BKN130 OVC220
     FM060400 13006KT 6SM -RA OVC050
     FM060900 13009KT 4SM -RA OVC015=

USA.gov is the U.S. government's official web portal to all federal, state and local government web resources and services.